createdAt,value
2016-12-27T00:00:27.257Z,85.49
2016-12-27T00:01:27.276Z,85.44
2016-12-27T00:02:27.293Z,85.35
2016-12-27T00:03:27.310Z,85.21
2016-12-27T00:04:27.328Z,85.25
2016-12-27T00:05:27.347Z,85.16
2016-12-27T00:06:27.367Z,85.06
2016-12-27T00:07:27.380Z,85.06
2016-12-27T00:08:27.400Z,84.87
2016-12-27T00:09:27.417Z,84.4
2016-12-27T00:10:27.434Z,84.21
2016-12-27T00:12:27.471Z,84.4
2016-12-27T00:13:27.541Z,84.21
2016-12-27T00:14:27.510Z,84.21
2016-12-27T00:15:42.441Z,84.21
2016-12-27T00:16:27.541Z,84.4
2016-12-27T00:17:27.558Z,84.3
2016-12-27T00:18:27.575Z,84.01
2016-12-27T00:19:27.593Z,84.11
2016-12-27T00:20:27.613Z,84.21
2016-12-27T00:21:27.629Z,84.11
2016-12-27T00:22:27.647Z,84.49
2016-12-27T00:23:27.665Z,84.59
2016-12-27T00:24:27.682Z,84.97
2016-12-27T00:25:27.699Z,84.97
2016-12-27T00:26:27.717Z,85.06
2016-12-27T00:28:27.751Z,84.68
2016-12-27T00:29:27.781Z,84.78
2016-12-27T00:30:27.787Z,85.06
2016-12-27T00:31:42.724Z,85.44
2016-12-27T00:32:27.828Z,85.53
2016-12-27T00:33:27.839Z,85.16
2016-12-27T00:34:27.858Z,85.63
2016-12-27T00:35:27.875Z,86.3
2016-12-27T00:36:27.896Z,85.63
2016-12-27T00:37:27.913Z,85.63
2016-12-27T00:38:27.929Z,86.3
2016-12-27T00:39:27.947Z,86.77
2016-12-27T00:40:27.968Z,86.01
2016-12-27T00:41:27.982Z,86.2
2016-12-27T00:44:28.064Z,86.3
2016-12-27T00:45:28.053Z,86.3
2016-12-27T00:46:28.071Z,86.01
2016-12-27T00:47:43.006Z,85.63
2016-12-27T00:48:28.107Z,85.44
2016-12-27T00:49:28.123Z,85.63
2016-12-27T00:50:28.142Z,84.97
2016-12-27T00:51:28.158Z,85.72
2016-12-27T00:52:28.178Z,86.01
2016-12-27T00:53:28.194Z,86.3
2016-12-27T00:54:28.215Z,86.68
2016-12-27T00:55:28.230Z,86.11
2016-12-27T00:56:28.247Z,86.58
2016-12-27T00:57:28.268Z,86.49
2016-12-27T00:59:28.302Z,86.39
2016-12-27T01:00:28.319Z,86.2
2016-12-27T01:01:28.336Z,86.49
2016-12-27T01:02:28.353Z,86.87
2016-12-27T01:03:43.291Z,86.58
2016-12-27T01:04:28.391Z,86.68
2016-12-27T01:05:28.410Z,86.49
2016-12-27T01:06:28.424Z,86.39
2016-12-27T01:08:28.461Z,86.01
2016-12-27T01:09:28.479Z,86.49
2016-12-27T01:10:28.497Z,86.01
2016-12-27T01:11:28.514Z,86.2
2016-12-27T01:12:28.537Z,86.2
2016-12-27T01:13:28.549Z,86.49
2016-12-27T01:15:28.587Z,86.2
2016-12-27T01:16:28.604Z,85.82
2016-12-27T01:17:28.621Z,86.2
2016-12-27T01:18:43.558Z,85.44
2016-12-27T01:19:28.656Z,85.63
2016-12-27T01:20:28.673Z,85.72
2016-12-27T01:21:28.697Z,84.87
2016-12-27T01:22:28.710Z,85.63
2016-12-27T01:23:28.728Z,85.72
2016-12-27T01:24:28.746Z,85.91
2016-12-27T01:25:28.767Z,85.82
2016-12-27T01:26:28.782Z,85.72
2016-12-27T01:27:28.801Z,84.97
2016-12-27T01:28:28.816Z,84.97
2016-12-27T01:29:28.837Z,85.06
2016-12-27T01:30:28.855Z,84.68
2016-12-27T01:31:28.880Z,84.87
2016-12-27T01:32:28.889Z,84.87
2016-12-27T01:33:28.906Z,84.68
2016-12-27T01:34:28.925Z,84.97
2016-12-27T01:35:28.941Z,84.78
2016-12-27T01:36:28.958Z,85.06
2016-12-27T01:37:28.977Z,84.87
2016-12-27T01:38:28.994Z,84.68
2016-12-27T01:39:29.011Z,84.97
2016-12-27T01:40:29.031Z,84.59
2016-12-27T01:41:29.049Z,84.68
2016-12-27T01:42:29.072Z,84.97
2016-12-27T01:43:29.083Z,85.16
2016-12-27T01:44:29.102Z,84.49
2016-12-27T01:46:29.136Z,84.59
2016-12-27T01:47:29.156Z,84.21
2016-12-27T01:48:29.174Z,84.78
2016-12-27T01:49:29.191Z,85.53
2016-12-27T01:50:44.132Z,85.53
2016-12-27T01:51:29.228Z,85.16
2016-12-27T01:52:29.245Z,85.16
2016-12-27T01:53:29.266Z,85.25
2016-12-27T01:54:29.279Z,85.72
2016-12-27T01:55:29.298Z,85.63
2016-12-27T01:56:29.316Z,86.01
2016-12-27T01:57:29.363Z,86.01
2016-12-27T01:58:29.351Z,86.68
2016-12-27T01:59:29.374Z,86.68
2016-12-27T02:00:29.388Z,86.49
2016-12-27T02:01:29.430Z,87.34
2016-12-27T02:04:29.460Z,87.49
2016-12-27T02:05:29.476Z,87.39
2016-12-27T02:06:44.414Z,87.87
2016-12-27T02:07:29.511Z,88.34
2016-12-27T02:08:29.630Z,87.87
2016-12-27T02:09:29.548Z,87.77
2016-12-27T02:10:29.570Z,87.87
2016-12-27T02:11:29.584Z,88.43
2016-12-27T02:12:29.601Z,87.87
2016-12-27T02:13:29.620Z,87.96
2016-12-27T02:14:29.637Z,88.06
2016-12-27T02:15:29.655Z,88.15
2016-12-27T02:16:29.672Z,88.24
2016-12-27T02:17:29.690Z,88.43
2016-12-27T02:20:30.044Z,87.72
2016-12-27T02:21:29.762Z,87.24
2016-12-27T02:22:44.697Z,87.53
2016-12-27T02:23:29.798Z,87.68
2016-12-27T02:24:29.814Z,87.68
2016-12-27T02:25:30.133Z,87.49
2016-12-27T02:26:29.848Z,87.72
2016-12-27T02:27:29.867Z,88.01
2016-12-27T02:28:29.888Z,87.53
2016-12-27T02:29:29.905Z,87.39
2016-12-27T02:30:29.920Z,88.1
2016-12-27T02:31:29.940Z,87.43
2016-12-27T02:32:29.956Z,86.96
2016-12-27T02:33:29.973Z,87.62
2016-12-27T02:35:30.010Z,86.77
2016-12-27T02:36:30.048Z,87.05
2016-12-27T02:37:30.044Z,86.87
2016-12-27T02:38:44.981Z,87.24
2016-12-27T02:39:30.082Z,87.24
2016-12-27T02:40:30.100Z,86.96
2016-12-27T02:41:30.118Z,86.39
2016-12-27T02:42:30.135Z,87.24
2016-12-27T02:43:30.157Z,87.24
2016-12-27T02:44:30.174Z,86.2
2016-12-27T02:45:30.187Z,86.39
2016-12-27T02:46:30.205Z,86.58
2016-12-27T02:47:30.224Z,86.2
2016-12-27T02:48:30.241Z,86.2
2016-12-27T02:49:30.265Z,86.3
2016-12-27T02:50:30.279Z,86.68
2016-12-27T02:51:30.296Z,86.39
2016-12-27T02:52:30.315Z,86.39
2016-12-27T02:53:45.249Z,86.58
2016-12-27T02:54:30.348Z,86.68
2016-12-27T02:55:30.366Z,86.58
2016-12-27T02:56:30.383Z,86.3
2016-12-27T02:57:30.403Z,86.77
2016-12-27T02:58:30.420Z,86.2
2016-12-27T02:59:30.438Z,86.3
2016-12-27T03:00:30.455Z,86.49
2016-12-27T03:02:30.489Z,86.3
2016-12-27T03:03:30.507Z,86.49
2016-12-27T03:07:30.580Z,86.11
2016-12-27T03:08:30.596Z,86.01
2016-12-27T03:09:30.614Z,86.2
2016-12-27T03:10:30.631Z,86.2
2016-12-27T03:11:30.651Z,85.44
2016-12-27T03:12:30.693Z,85.53
2016-12-27T03:13:30.684Z,85.63
2016-12-27T03:14:30.705Z,85.82
2016-12-27T03:15:30.722Z,85.72
2016-12-27T03:16:30.740Z,85.82
2016-12-27T03:17:30.756Z,85.82
2016-12-27T03:19:30.793Z,86.2
2016-12-27T03:20:30.811Z,85.35
2016-12-27T03:21:30.828Z,86.49
2016-12-27T03:22:30.846Z,86.11
2016-12-27T03:23:30.863Z,85.82
2016-12-27T03:24:30.881Z,86.49
2016-12-27T03:25:45.817Z,86.11
2016-12-27T03:26:30.917Z,86.11
2016-12-27T03:27:30.935Z,86.68
2016-12-27T03:28:30.952Z,86.39
2016-12-27T03:29:30.971Z,86.49
2016-12-27T03:30:30.989Z,86.68
2016-12-27T03:31:31.009Z,86.77
2016-12-27T03:32:31.024Z,86.39
2016-12-27T03:33:31.042Z,86.49
2016-12-27T03:34:31.060Z,86.58
2016-12-27T03:35:31.076Z,86.68
2016-12-27T03:36:31.096Z,86.49
2016-12-27T03:37:31.113Z,86.68
2016-12-27T03:38:31.132Z,86.24
2016-12-27T03:39:31.148Z,86.68
2016-12-27T03:40:31.168Z,86.05
2016-12-27T03:41:46.103Z,86.24
2016-12-27T03:42:31.204Z,85.68
2016-12-27T03:43:31.219Z,85.96
2016-12-27T03:44:31.238Z,86.15
2016-12-27T03:45:31.256Z,86.43
2016-12-27T03:46:31.272Z,85.49
2016-12-27T03:47:31.291Z,85.77
2016-12-27T03:48:31.309Z,85.49
2016-12-27T03:49:31.327Z,85.58
2016-12-27T03:50:31.344Z,86.24
2016-12-27T03:53:31.400Z,86.05
2016-12-27T03:54:31.416Z,85.49
2016-12-27T03:55:31.435Z,85.49
2016-12-27T03:56:31.455Z,86.05
2016-12-27T03:57:46.389Z,85.68
2016-12-27T03:58:31.488Z,85.96
2016-12-27T03:59:31.506Z,86.53
2016-12-27T04:00:31.524Z,86.72
2016-12-27T04:01:31.540Z,86.34
2016-12-27T04:02:31.559Z,86.34
2016-12-27T04:03:31.580Z,86.34
2016-12-27T04:04:31.596Z,86.34
2016-12-27T04:05:31.613Z,86.24
2016-12-27T04:06:31.632Z,86.05
2016-12-27T04:07:31.649Z,86.43
2016-12-27T04:08:31.667Z,86.34
2016-12-27T04:09:31.686Z,86.34
2016-12-27T04:10:31.703Z,86.53
2016-12-27T04:11:31.722Z,86.43
2016-12-27T04:12:31.741Z,86.05
2016-12-27T04:13:46.676Z,85.49
2016-12-27T04:14:31.775Z,86.05
2016-12-27T04:15:31.794Z,86.34
2016-12-27T04:16:32.117Z,85.77
2016-12-27T04:17:31.830Z,86.34
2016-12-27T04:18:31.850Z,86.15
2016-12-27T04:19:31.867Z,86.82
2016-12-27T04:20:31.884Z,86.72
2016-12-27T04:21:31.904Z,86.15
2016-12-27T04:22:31.922Z,86.05
2016-12-27T04:23:31.939Z,86.53
2016-12-27T04:24:31.956Z,86.53
2016-12-27T04:25:31.976Z,86.43
2016-12-27T04:26:31.994Z,86.82
2016-12-27T04:27:32.013Z,87.38
2016-12-27T04:28:46.950Z,86.63
2016-12-27T04:29:32.050Z,86.43
2016-12-27T04:30:32.068Z,86.24
2016-12-27T04:31:32.086Z,85.96
2016-12-27T04:32:32.106Z,86.34
2016-12-27T04:33:32.124Z,86.05
2016-12-27T04:34:32.140Z,86.05
2016-12-27T04:35:32.159Z,86.24
2016-12-27T04:37:32.195Z,86.34
2016-12-27T04:40:32.255Z,86.63
2016-12-27T04:42:32.289Z,86.63
2016-12-27T04:43:32.304Z,85.86
2016-12-27T04:44:32.324Z,86.05
2016-12-27T04:45:32.341Z,86.24
2016-12-27T04:46:32.360Z,85.86
2016-12-27T04:47:32.378Z,85.77
2016-12-27T04:48:32.395Z,85.77
2016-12-27T04:49:32.418Z,85.58
2016-12-27T04:50:32.432Z,85.58
2016-12-27T04:51:32.452Z,86.34
2016-12-27T04:52:32.467Z,85.68
2016-12-27T04:53:32.486Z,85.77
2016-12-27T04:54:32.504Z,85.58
2016-12-27T04:55:32.528Z,86.05
2016-12-27T04:56:32.540Z,85.86
2016-12-27T04:57:32.559Z,85.86
2016-12-27T04:58:32.578Z,85.77
2016-12-27T04:59:32.595Z,86.34
2016-12-27T05:00:47.536Z,86.43
2016-12-27T05:01:32.631Z,86.72
2016-12-27T05:02:32.652Z,86.63
2016-12-27T05:03:32.668Z,86.53
2016-12-27T05:04:32.686Z,86.72
2016-12-27T05:05:32.705Z,86.72
2016-12-27T05:06:32.724Z,85.96
2016-12-27T05:07:32.740Z,85.96
2016-12-27T05:08:32.757Z,86.53
2016-12-27T05:09:32.777Z,86.53
2016-12-27T05:10:32.799Z,86.63
2016-12-27T05:11:32.814Z,87.29
2016-12-27T05:13:32.850Z,87.01
2016-12-27T05:14:32.870Z,87.19
2016-12-27T05:15:32.889Z,87.38
2016-12-27T05:16:47.823Z,86.63
2016-12-27T05:17:32.922Z,86.34
2016-12-27T05:18:32.940Z,86.34
2016-12-27T05:19:32.958Z,86.72
2016-12-27T05:20:32.983Z,86.24
2016-12-27T05:21:32.995Z,86.34
2016-12-27T05:22:33.012Z,86.43
2016-12-27T05:23:33.030Z,85.96
2016-12-27T05:24:33.050Z,86.24
2016-12-27T05:25:33.065Z,86.72
2016-12-27T05:27:33.104Z,86.34
2016-12-27T05:28:33.124Z,86.24
2016-12-27T05:29:33.140Z,86.34
2016-12-27T05:30:33.158Z,87.38
2016-12-27T05:31:33.184Z,87.1
2016-12-27T05:32:48.113Z,87.29
2016-12-27T05:33:33.214Z,88.05
2016-12-27T05:34:33.231Z,88.34
2016-12-27T05:35:33.254Z,87.86
2016-12-27T05:36:33.266Z,88.34
2016-12-27T05:37:33.285Z,88.24
2016-12-27T05:38:33.305Z,88.15
2016-12-27T05:39:33.322Z,88.53
2016-12-27T05:40:33.341Z,88.62
2016-12-27T05:41:33.358Z,88.15
2016-12-27T05:42:33.376Z,88.34
2016-12-27T05:43:33.395Z,88.24
2016-12-27T05:44:33.413Z,88.34
2016-12-27T05:45:33.431Z,88.34
2016-12-27T05:46:33.450Z,88.43
2016-12-27T05:47:33.466Z,88.34
2016-12-27T05:48:48.404Z,88.15
2016-12-27T05:49:33.504Z,88.34
2016-12-27T05:50:33.526Z,88.53
2016-12-27T05:51:33.540Z,88.34
2016-12-27T05:52:33.559Z,88.71
2016-12-27T05:53:33.579Z,88.9
2016-12-27T05:54:33.595Z,89.09
2016-12-27T05:55:33.613Z,89.28
2016-12-27T05:56:33.631Z,89.38
2016-12-27T05:57:33.652Z,89.28
2016-12-27T05:58:33.668Z,89.47
2016-12-27T06:00:33.705Z,89.57
2016-12-27T06:01:33.735Z,88.9
2016-12-27T06:02:33.741Z,89.38
2016-12-27T06:03:48.680Z,89.28
2016-12-27T06:04:33.782Z,89.38
2016-12-27T06:05:33.797Z,89.57
2016-12-27T06:06:33.816Z,89.38
2016-12-27T06:07:33.834Z,89.76
2016-12-27T06:08:33.854Z,90.9
2016-12-27T06:09:33.871Z,90.71
2016-12-27T06:10:33.889Z,91.09
2016-12-27T06:11:33.908Z,90.8
2016-12-27T06:12:33.926Z,91.56
2016-12-27T06:14:33.964Z,91.94
2016-12-27T06:15:33.983Z,92.13
2016-12-27T06:17:34.019Z,92.32
2016-12-27T06:18:34.036Z,92.9
2016-12-27T06:19:34.058Z,92.8
2016-12-27T06:20:34.072Z,93.46
2016-12-27T06:21:34.091Z,94.18
2016-12-27T06:22:34.110Z,94.65
2016-12-27T06:23:34.129Z,95.17
2016-12-27T06:24:34.147Z,96.08
2016-12-27T06:25:34.164Z,96.36
2016-12-27T06:26:34.184Z,96.45
2016-12-27T06:27:34.200Z,96.64
2016-12-27T06:28:34.221Z,97.02
2016-12-27T06:29:34.237Z,97.5
2016-12-27T06:31:34.276Z,97.69
2016-12-27T06:32:34.292Z,96.55
2016-12-27T06:33:34.310Z,97.02
2016-12-27T06:34:34.329Z,97.12
2016-12-27T06:35:49.265Z,96.55
2016-12-27T06:36:34.365Z,96.45
2016-12-27T06:37:34.384Z,95.7
2016-12-27T06:38:34.401Z,95.79
2016-12-27T06:39:34.421Z,95.03
2016-12-27T06:40:34.436Z,95.6
2016-12-27T06:41:34.458Z,95.22
2016-12-27T06:42:34.475Z,95.6
2016-12-27T06:43:34.491Z,95.51
2016-12-27T06:44:34.511Z,95.7
2016-12-27T06:45:34.529Z,96.08
2016-12-27T06:47:34.565Z,95.51
2016-12-27T06:48:34.585Z,95.89
2016-12-27T06:49:34.600Z,95.79
2016-12-27T06:50:34.622Z,95.6
2016-12-27T06:51:49.556Z,95.79
2016-12-27T06:52:34.658Z,95.98
2016-12-27T06:53:34.673Z,95.89
2016-12-27T06:54:34.696Z,95.79
2016-12-27T06:55:34.710Z,95.41
2016-12-27T06:56:34.729Z,95.7
2016-12-27T06:57:34.745Z,95.79
2016-12-27T06:58:34.765Z,96.08
2016-12-27T06:59:34.783Z,95.7
2016-12-27T07:00:34.800Z,96.03
2016-12-27T07:01:34.818Z,95.51
2016-12-27T07:02:34.838Z,95.98
2016-12-27T07:05:34.893Z,96.08
2016-12-27T07:06:34.910Z,96.45
2016-12-27T07:07:49.845Z,96.64
2016-12-27T07:08:34.944Z,97.31
2016-12-27T07:09:34.965Z,96.83
2016-12-27T07:10:34.983Z,97.5
2016-12-27T07:11:35.001Z,97.5
2016-12-27T07:12:35.019Z,98.07
2016-12-27T07:13:35.039Z,97.41
2016-12-27T07:14:35.053Z,97.5
2016-12-27T07:15:35.072Z,96.83
2016-12-27T07:16:35.090Z,96.83
2016-12-27T07:17:35.108Z,96.26
2016-12-27T07:19:35.151Z,96.08
2016-12-27T07:20:35.162Z,95.7
2016-12-27T07:21:35.181Z,95.51
2016-12-27T07:22:35.199Z,95.6
2016-12-27T07:23:50.136Z,95.12
2016-12-27T07:24:35.236Z,95.12
2016-12-27T07:25:35.255Z,95.12
2016-12-27T07:26:35.271Z,94.74
2016-12-27T07:27:35.292Z,95.03
2016-12-27T07:28:35.311Z,94.84
2016-12-27T07:29:35.325Z,95.03
2016-12-27T07:30:35.344Z,94.74
2016-12-27T07:31:35.362Z,94.74
2016-12-27T07:32:35.381Z,95.03
2016-12-27T07:36:35.453Z,94.93
2016-12-27T07:37:35.472Z,94.46
2016-12-27T07:38:50.408Z,94.46
2016-12-27T07:39:35.510Z,95.03
2016-12-27T07:40:35.530Z,95.08
2016-12-27T07:41:35.545Z,94.84
2016-12-27T07:42:35.563Z,94.65
2016-12-27T07:43:35.582Z,95.51
2016-12-27T07:44:35.597Z,94.65
2016-12-27T07:45:35.618Z,94.93
2016-12-27T07:46:35.661Z,95.22
2016-12-27T07:47:35.653Z,95.12
2016-12-27T07:48:35.975Z,95.03
2016-12-27T07:49:35.691Z,95.51
2016-12-27T07:50:35.708Z,95.51
2016-12-27T07:52:35.745Z,94.93
2016-12-27T07:53:35.763Z,95.7
2016-12-27T07:54:35.780Z,95.41
2016-12-27T07:55:35.800Z,94.84
2016-12-27T07:56:35.824Z,94.74
2016-12-27T07:57:35.835Z,94.84
2016-12-27T07:58:35.854Z,94.79
2016-12-27T07:59:35.871Z,94.6
2016-12-27T08:00:35.914Z,94.37
2016-12-27T08:01:35.908Z,94.23
2016-12-27T08:02:35.925Z,94.13
2016-12-27T08:03:35.944Z,94.03
2016-12-27T08:04:35.961Z,94.32
2016-12-27T08:06:36.002Z,94.23
2016-12-27T08:07:36.017Z,94.46
2016-12-27T08:08:36.035Z,94.7
2016-12-27T08:09:36.053Z,94.03
2016-12-27T08:10:50.990Z,94.42
2016-12-27T08:11:36.092Z,94.42
2016-12-27T08:12:36.108Z,94.13
2016-12-27T08:13:36.128Z,94.42
2016-12-27T08:14:36.144Z,94.27
2016-12-27T08:15:36.188Z,94.46
2016-12-27T08:16:36.182Z,93.94
2016-12-27T08:17:36.199Z,94.32
2016-12-27T08:18:36.218Z,93.84
2016-12-27T08:19:36.240Z,93.65
2016-12-27T08:20:36.256Z,93.08
2016-12-27T08:21:36.274Z,93.37
2016-12-27T08:22:36.292Z,93.46
2016-12-27T08:23:36.310Z,92.99
2016-12-27T08:24:36.329Z,92.23
2016-12-27T08:25:36.349Z,91.66
2016-12-27T08:26:51.284Z,91.56
2016-12-27T08:27:36.384Z,91.75
2016-12-27T08:28:36.403Z,91.66
2016-12-27T08:29:36.420Z,91.38
2016-12-27T08:30:36.441Z,91.56
2016-12-27T08:31:36.458Z,91.38
2016-12-27T08:32:36.476Z,91.28
2016-12-27T08:33:36.496Z,91.56
2016-12-27T08:34:36.513Z,91.66
2016-12-27T08:35:36.532Z,91.85
2016-12-27T08:36:36.550Z,91.94
2016-12-27T08:37:36.568Z,91.94
2016-12-27T08:38:36.589Z,91.94
2016-12-27T08:40:36.624Z,92.51
2016-12-27T08:41:36.843Z,92.42
2016-12-27T08:42:51.579Z,92.61
2016-12-27T08:43:36.681Z,92.23
2016-12-27T08:44:36.699Z,92.61
2016-12-27T08:45:36.717Z,92.32
2016-12-27T08:46:36.739Z,92.04
2016-12-27T08:47:36.753Z,92.71
2016-12-27T08:48:36.822Z,92.51
2016-12-27T08:49:36.841Z,93.23
2016-12-27T08:50:36.815Z,93.08
2016-12-27T08:51:36.828Z,92.51
2016-12-27T08:52:36.852Z,92.32
2016-12-27T08:53:36.863Z,92.51
2016-12-27T08:54:36.884Z,92.32
2016-12-27T08:55:36.903Z,92.61
2016-12-27T08:56:36.923Z,92.32
2016-12-27T08:57:36.940Z,92.46
2016-12-27T08:58:51.877Z,92.37
2016-12-27T08:59:36.976Z,92.56
2016-12-27T09:00:36.998Z,92.13
2016-12-27T09:01:37.014Z,91.85
2016-12-27T09:02:37.032Z,91.23
2016-12-27T09:03:37.052Z,91.19
2016-12-27T09:04:37.070Z,91.33
2016-12-27T09:05:37.088Z,91.42
2016-12-27T09:06:37.106Z,91.71
2016-12-27T09:07:37.125Z,91.47
2016-12-27T09:08:37.143Z,91.42
2016-12-27T09:11:37.205Z,91.52
2016-12-27T09:12:37.223Z,91.23
2016-12-27T09:13:52.157Z,90.19
2016-12-27T09:14:37.259Z,90.28
2016-12-27T09:15:37.277Z,90.47
2016-12-27T09:16:37.294Z,89.42
2016-12-27T09:17:37.314Z,90
2016-12-27T09:18:37.332Z,89.61
2016-12-27T09:19:37.351Z,89.33
2016-12-27T09:20:37.370Z,90
2016-12-27T09:21:37.387Z,89.33
2016-12-27T09:22:37.409Z,89.42
2016-12-27T09:23:37.424Z,89.04
2016-12-27T09:25:37.464Z,89.52
2016-12-27T09:26:37.482Z,89.8
2016-12-27T09:27:37.499Z,90
2016-12-27T09:28:37.520Z,90.37
2016-12-27T09:29:37.540Z,90.47
2016-12-27T09:30:37.556Z,90.28
2016-12-27T09:31:37.575Z,89.42
2016-12-27T09:32:37.595Z,89.71
2016-12-27T09:33:37.611Z,89.42
2016-12-27T09:34:37.661Z,89.8
2016-12-27T09:35:37.651Z,89.61
2016-12-27T09:36:37.669Z,89.42
2016-12-27T09:37:37.688Z,88.47
2016-12-27T09:38:37.705Z,88
2016-12-27T09:39:37.725Z,87.24
2016-12-27T09:40:37.772Z,86.67
2016-12-27T09:41:37.762Z,86.29
2016-12-27T09:42:37.780Z,86.38
2016-12-27T09:43:37.800Z,86.29
2016-12-27T09:44:37.820Z,86.1
2016-12-27T09:45:52.756Z,86.47
2016-12-27T09:46:37.856Z,86
2016-12-27T09:47:37.875Z,85.53
2016-12-27T09:48:37.893Z,85.19
2016-12-27T09:49:37.912Z,84.77
2016-12-27T09:50:37.931Z,84.05
2016-12-27T09:51:37.949Z,83.53
2016-12-27T09:52:37.971Z,83.76
2016-12-27T09:53:37.986Z,83.48
2016-12-27T09:54:38.008Z,82.71
2016-12-27T09:55:38.024Z,82.43
2016-12-27T09:57:38.063Z,81.01
2016-12-27T09:58:38.084Z,81.1
2016-12-27T09:59:38.101Z,81.29
2016-12-27T10:00:38.122Z,80.63
2016-12-27T10:01:53.059Z,80.34
2016-12-27T10:02:38.159Z,80.34
2016-12-27T10:03:38.175Z,78.82
2016-12-27T10:04:38.196Z,77.97
2016-12-27T10:05:38.217Z,78.06
2016-12-27T10:06:38.233Z,77.97
2016-12-27T10:07:38.251Z,77.68
2016-12-27T10:08:38.272Z,77.49
2016-12-27T10:09:38.289Z,77.49
2016-12-27T10:10:38.308Z,77.2
2016-12-27T10:11:38.327Z,77.49
2016-12-27T10:12:38.346Z,77.3
2016-12-27T10:13:38.368Z,76.92
2016-12-27T10:15:38.403Z,76.73
2016-12-27T10:16:38.422Z,75.78
2016-12-27T10:17:53.359Z,76.06
2016-12-27T10:18:38.459Z,75.4
2016-12-27T10:19:38.481Z,75.02
2016-12-27T10:20:38.498Z,74.82
2016-12-27T10:21:38.518Z,74.82
2016-12-27T10:22:38.536Z,74.92
2016-12-27T10:23:38.559Z,75.11
2016-12-27T10:24:38.574Z,74.73
2016-12-27T10:25:38.591Z,74.26
2016-12-27T10:26:38.613Z,74.54
2016-12-27T10:27:38.630Z,73.88
2016-12-27T10:28:38.649Z,73.97
2016-12-27T10:29:38.671Z,73.69
2016-12-27T10:30:38.995Z,74.73
2016-12-27T10:31:38.705Z,73.97
2016-12-27T10:32:38.726Z,73.97
2016-12-27T10:33:53.663Z,74.07
2016-12-27T10:34:38.765Z,73.53
2016-12-27T10:35:38.782Z,73.78
2016-12-27T10:36:38.800Z,73.72
2016-12-27T10:37:38.819Z,73.63
2016-12-27T10:38:38.839Z,73.06
2016-12-27T10:39:38.855Z,73.91
2016-12-27T10:40:38.876Z,73.34
2016-12-27T10:41:38.896Z,72.49
2016-12-27T10:42:38.914Z,72.58
2016-12-27T10:43:38.937Z,72.64
2016-12-27T10:44:38.955Z,72.49
2016-12-27T10:46:38.990Z,72.58
2016-12-27T10:47:39.009Z,72.49
2016-12-27T10:48:53.948Z,72.58
2016-12-27T10:49:39.048Z,72.49
2016-12-27T10:50:39.067Z,72.39
2016-12-27T10:51:39.086Z,72.39
2016-12-27T10:52:39.108Z,71.5
2016-12-27T10:53:39.125Z,71.63
2016-12-27T10:54:39.146Z,71.53
2016-12-27T10:55:39.161Z,71.25
2016-12-27T10:56:39.183Z,72.2
2016-12-27T10:57:39.200Z,71.34
2016-12-27T10:58:39.218Z,72.2
2016-12-27T11:00:39.258Z,72.67
2016-12-27T11:01:39.277Z,72.2
2016-12-27T11:02:39.295Z,72.67
2016-12-27T11:03:39.314Z,72.11
2016-12-27T11:04:39.334Z,72.26
2016-12-27T11:05:39.350Z,72.67
2016-12-27T11:06:39.371Z,72.67
2016-12-27T11:07:39.390Z,72.07
2016-12-27T11:08:39.411Z,71.63
2016-12-27T11:09:39.428Z,71.82
2016-12-27T11:10:39.448Z,72.3
2016-12-27T11:11:39.467Z,72.67
2016-12-27T11:12:39.485Z,73.44
2016-12-27T11:13:39.504Z,72.67
2016-12-27T11:14:39.527Z,72.58
2016-12-27T11:15:39.543Z,72.39
2016-12-27T11:16:39.564Z,72.3
2016-12-27T11:17:39.579Z,72.07
2016-12-27T11:18:39.600Z,71.78
2016-12-27T11:19:39.617Z,72.39
2016-12-27T11:20:54.555Z,72.58
2016-12-27T11:21:39.656Z,72.3
2016-12-27T11:22:39.698Z,72.3
2016-12-27T11:23:39.694Z,72.2
2016-12-27T11:24:39.716Z,72.11
2016-12-27T11:25:39.731Z,71.44
2016-12-27T11:26:39.752Z,71.97
2016-12-27T11:27:39.771Z,72.01
2016-12-27T11:28:39.790Z,72.2
2016-12-27T11:29:39.809Z,72.01
2016-12-27T11:30:39.828Z,71.53
2016-12-27T11:31:39.845Z,71.63
2016-12-27T11:32:39.867Z,71.5
2016-12-27T11:33:39.885Z,72.2
2016-12-27T11:34:39.907Z,72.39
2016-12-27T11:35:39.923Z,72.49
2016-12-27T11:36:54.862Z,72.96
2016-12-27T11:37:39.962Z,72.58
2016-12-27T11:38:39.980Z,72.35
2016-12-27T11:39:40.001Z,72.49
2016-12-27T11:40:40.020Z,72.39
2016-12-27T11:41:40.039Z,71.72
2016-12-27T11:42:40.057Z,71.41
2016-12-27T11:43:40.077Z,71.25
2016-12-27T11:44:40.096Z,71.25
2016-12-27T11:45:40.115Z,71.06
2016-12-27T11:46:40.134Z,70.97
2016-12-27T11:47:40.153Z,71.34
2016-12-27T11:48:40.176Z,71.44
2016-12-27T11:49:40.193Z,71.44
2016-12-27T11:50:40.212Z,71.31
2016-12-27T11:51:40.231Z,71.06
2016-12-27T11:52:55.169Z,71.72
2016-12-27T11:53:40.269Z,70.87
2016-12-27T11:54:40.290Z,70.39
2016-12-27T11:55:40.309Z,70.68
2016-12-27T11:56:40.327Z,70.68
2016-12-27T11:57:40.347Z,70.58
2016-12-27T11:58:40.392Z,71.25
2016-12-27T11:59:40.387Z,70.68
2016-12-27T12:00:40.406Z,70.49
2016-12-27T12:01:40.425Z,70.77
2016-12-27T12:03:40.464Z,70.3
2016-12-27T12:04:40.484Z,70.3
2016-12-27T12:05:40.503Z,70.2
2016-12-27T12:06:40.523Z,70.49
2016-12-27T12:07:40.542Z,70.01
2016-12-27T12:08:55.481Z,70.2
2016-12-27T12:09:40.590Z,70.49
2016-12-27T12:10:40.601Z,70.68
2016-12-27T12:11:40.621Z,70.39
2016-12-27T12:12:40.641Z,71.25
2016-12-27T12:13:40.662Z,70.68
2016-12-27T12:14:40.679Z,70.68
2016-12-27T12:15:40.701Z,70.49
2016-12-27T12:16:40.719Z,70.49
2016-12-27T12:17:41.053Z,69.82
2016-12-27T12:18:40.760Z,69.73
2016-12-27T12:19:40.778Z,68.87
2016-12-27T12:21:40.819Z,68.59
2016-12-27T12:22:40.841Z,68.87
2016-12-27T12:23:55.778Z,68.77
2016-12-27T12:24:40.881Z,68.49
2016-12-27T12:25:40.898Z,68.4
2016-12-27T12:26:40.923Z,68.68
2016-12-27T12:27:40.937Z,68.59
2016-12-27T12:28:41.007Z,68.21
2016-12-27T12:29:40.977Z,67.63
2016-12-27T12:30:40.999Z,67.82
2016-12-27T12:31:41.017Z,67.82
2016-12-27T12:32:41.035Z,67.92
2016-12-27T12:33:41.056Z,67.92
2016-12-27T12:34:41.074Z,67.35
2016-12-27T12:35:41.098Z,67.25
2016-12-27T12:36:41.116Z,67.07
2016-12-27T12:38:41.154Z,67.25
2016-12-27T12:39:41.176Z,67.07
2016-12-27T12:40:41.194Z,67.44
2016-12-27T12:41:41.214Z,67.07
2016-12-27T12:42:41.233Z,66.78
2016-12-27T12:43:41.253Z,66.11
2016-12-27T12:44:41.273Z,66.11
2016-12-27T12:45:41.295Z,65.92
2016-12-27T12:46:41.313Z,66.49
2016-12-27T12:47:41.332Z,66.02
2016-12-27T12:48:41.360Z,65.83
2016-12-27T12:49:41.372Z,65.73
2016-12-27T12:52:41.431Z,65.92
2016-12-27T12:53:41.456Z,65.83
2016-12-27T12:54:41.469Z,66.11
2016-12-27T12:55:56.410Z,66.11
2016-12-27T12:56:41.510Z,65.92
2016-12-27T12:57:41.531Z,65.92
2016-12-27T12:58:41.549Z,66.3
2016-12-27T12:59:41.572Z,66.2
2016-12-27T13:00:41.590Z,66.87
2016-12-27T13:01:41.609Z,66.87
2016-12-27T13:02:41.629Z,66.49
2016-12-27T13:03:41.648Z,67.07
2016-12-27T13:04:41.674Z,66.68
2016-12-27T13:05:41.688Z,67.07
2016-12-27T13:08:41.748Z,67.63
2016-12-27T13:09:41.765Z,67.73
2016-12-27T13:10:41.784Z,66.97
2016-12-27T13:11:56.723Z,67.82
2016-12-27T13:12:41.824Z,67.63
2016-12-27T13:13:41.844Z,67.16
2016-12-27T13:14:41.868Z,67.63
2016-12-27T13:15:41.906Z,67.73
2016-12-27T13:16:41.901Z,67.73
2016-12-27T13:17:41.922Z,67.63
2016-12-27T13:18:41.941Z,67.16
2016-12-27T13:19:41.960Z,67.16
2016-12-27T13:20:41.980Z,67.35
2016-12-27T13:21:41.999Z,67.82
2016-12-27T13:22:42.019Z,67.73
2016-12-27T13:23:42.039Z,67.69
2016-12-27T13:24:42.058Z,67.03
2016-12-27T13:25:42.084Z,67.03
2016-12-27T13:26:42.097Z,67.41
2016-12-27T13:27:57.036Z,67.88
2016-12-27T13:28:42.136Z,67.69
2016-12-27T13:29:42.156Z,67.6
2016-12-27T13:30:42.176Z,67.98
2016-12-27T13:31:42.195Z,67.88
2016-12-27T13:32:42.214Z,67.6
2016-12-27T13:33:42.237Z,68.17
2016-12-27T13:34:42.254Z,67.88
2016-12-27T13:35:42.275Z,67.22
2016-12-27T13:36:42.297Z,66.94
2016-12-27T13:37:42.312Z,66.55
2016-12-27T13:38:42.332Z,66.36
2016-12-27T13:40:42.371Z,65.8
2016-12-27T13:41:42.392Z,66.36
2016-12-27T13:42:42.409Z,66.84
2016-12-27T13:43:57.348Z,65.99
2016-12-27T13:44:42.448Z,66.27
2016-12-27T13:45:42.470Z,65.89
2016-12-27T13:46:42.488Z,66.46
2016-12-27T13:47:42.506Z,66.74
2016-12-27T13:48:42.527Z,66.74
2016-12-27T13:49:42.545Z,67.03
2016-12-27T13:50:42.566Z,66.94